createdAt,value
2019-03-29T00:00:53.931Z,90.13
2019-03-29T00:03:25.212Z,90.22
2019-03-29T00:05:56.430Z,89.94
2019-03-29T00:08:27.778Z,90.02
2019-03-29T00:10:58.949Z,90.18
2019-03-29T00:13:30.288Z,91.01
2019-03-29T00:16:01.624Z,90.64
2019-03-29T00:18:33.225Z,90.19
2019-03-29T00:21:04.478Z,89.45
2019-03-29T00:23:35.666Z,88.80
2019-03-29T00:26:07.009Z,87.80
2019-03-29T00:28:38.339Z,87.74
2019-03-29T00:31:09.710Z,86.09
2019-03-29T00:33:40.894Z,85.42
2019-03-29T00:36:12.203Z,85.48
2019-03-29T00:38:43.478Z,86.04
2019-03-29T00:41:14.669Z,85.71
2019-03-29T00:43:45.910Z,86.31
2019-03-29T00:46:17.111Z,87.11
2019-03-29T00:48:48.384Z,86.39
2019-03-29T00:51:19.594Z,86.42
2019-03-29T00:53:50.944Z,86.61
2019-03-29T00:56:22.110Z,86.89
2019-03-29T00:58:53.230Z,87.34
2019-03-29T01:01:24.367Z,87.75
2019-03-29T01:03:55.799Z,88.14
2019-03-29T01:06:26.954Z,88.15
2019-03-29T01:08:58.240Z,88.28
2019-03-29T01:11:29.434Z,88.07
2019-03-29T01:14:00.580Z,88.42
2019-03-29T01:16:31.756Z,89.03
2019-03-29T01:19:03.901Z,89.02
2019-03-29T01:21:35.344Z,89.20
2019-03-29T01:24:06.607Z,88.80
2019-03-29T01:26:37.719Z,88.89
2019-03-29T01:29:08.841Z,88.58
2019-03-29T01:31:40.242Z,88.96
2019-03-29T01:34:12.280Z,88.74
2019-03-29T01:36:43.554Z,88.98
2019-03-29T01:39:14.727Z,89.06
2019-03-29T01:41:45.920Z,89.08
2019-03-29T01:44:17.210Z,89.97
2019-03-29T01:46:48.448Z,92.71
2019-03-29T01:49:19.684Z,93.83
2019-03-29T01:51:50.800Z,94.08
2019-03-29T01:54:22.042Z,94.24
2019-03-29T01:56:53.155Z,94.13
2019-03-29T01:59:24.257Z,93.97
2019-03-29T02:01:55.491Z,93.59
2019-03-29T02:04:26.639Z,91.16
2019-03-29T02:06:57.824Z,92.02
2019-03-29T02:09:29.031Z,94.44
2019-03-29T02:12:00.220Z,95.97
2019-03-29T02:14:31.307Z,96.71
2019-03-29T02:17:02.585Z,97.00
2019-03-29T02:19:33.750Z,96.50
2019-03-29T02:22:05.040Z,95.01
2019-03-29T02:24:36.193Z,93.35
2019-03-29T02:27:07.940Z,93.91
2019-03-29T02:29:39.094Z,94.93
2019-03-29T02:32:10.296Z,94.91
2019-03-29T02:34:43.639Z,94.75
2019-03-29T02:37:14.468Z,94.58
2019-03-29T02:39:45.653Z,94.58
2019-03-29T02:42:16.875Z,94.82
2019-03-29T02:44:48.095Z,94.37
2019-03-29T02:47:19.434Z,94.12
2019-03-29T02:49:50.652Z,93.87
2019-03-29T02:52:21.829Z,93.71
2019-03-29T02:54:52.984Z,93.84
2019-03-29T02:57:24.259Z,94.16
2019-03-29T02:59:55.395Z,94.06
2019-03-29T03:02:26.752Z,94.17
2019-03-29T03:04:58.209Z,93.94
2019-03-29T03:07:29.401Z,93.54
2019-03-29T03:10:00.608Z,93.51
2019-03-29T03:12:31.682Z,93.77
2019-03-29T03:15:02.812Z,93.94
2019-03-29T03:17:34.029Z,94.04
2019-03-29T03:20:06.609Z,94.55
2019-03-29T03:22:37.724Z,94.43
2019-03-29T03:25:09.920Z,94.53
2019-03-29T03:27:41.109Z,94.95
2019-03-29T03:30:13.573Z,94.78
2019-03-29T03:32:44.970Z,94.65
2019-03-29T03:35:16.657Z,93.95
2019-03-29T03:37:47.751Z,93.49
2019-03-29T03:40:19.219Z,93.37
2019-03-29T03:42:50.601Z,93.59
2019-03-29T03:45:21.829Z,93.83
2019-03-29T03:47:53.049Z,94.18
2019-03-29T03:50:43.887Z,94.60
2019-03-29T03:53:15.230Z,95.21
2019-03-29T03:55:47.347Z,96.02
2019-03-29T03:58:20.861Z,96.24
2019-03-29T04:00:56.847Z,96.38
2019-03-29T04:03:28.579Z,96.61
2019-03-29T04:06:00.135Z,96.75
2019-03-29T04:08:31.418Z,96.88
2019-03-29T04:11:02.790Z,96.93
2019-03-29T04:13:34.168Z,97.07
2019-03-29T04:16:06.125Z,97.24
2019-03-29T04:18:37.363Z,97.34
2019-03-29T04:21:08.798Z,97.41
2019-03-29T04:23:39.964Z,97.49
2019-03-29T04:26:12.111Z,97.63
2019-03-29T04:28:43.656Z,97.53
2019-03-29T04:31:14.909Z,97.38
2019-03-29T04:33:46.195Z,97.42
2019-03-29T04:36:17.403Z,97.47
2019-03-29T04:38:48.733Z,97.42
2019-03-29T04:41:20.066Z,97.09
2019-03-29T04:43:51.439Z,97.00
2019-03-29T04:46:22.931Z,97.19
2019-03-29T04:48:54.415Z,97.59
2019-03-29T04:51:26.459Z,97.99
2019-03-29T04:53:57.853Z,98.35
2019-03-29T04:56:29.295Z,98.40
2019-03-29T04:59:00.520Z,98.61
2019-03-29T05:01:31.915Z,99.36
2019-03-29T05:04:03.258Z,100.00
2019-03-29T05:06:34.414Z,100.00
2019-03-29T05:09:07.656Z,100.00
2019-03-29T05:11:39.194Z,100.00
2019-03-29T05:14:10.605Z,100.00
2019-03-29T05:16:41.959Z,99.85
2019-03-29T05:19:13.445Z,99.47
2019-03-29T05:21:44.852Z,99.23
2019-03-29T05:24:16.237Z,98.96
2019-03-29T05:26:47.674Z,98.85
2019-03-29T05:29:19.173Z,98.74
2019-03-29T05:31:53.750Z,98.62
2019-03-29T05:34:25.260Z,98.52
2019-03-29T05:37:00.960Z,98.56
2019-03-29T05:39:38.430Z,98.66
2019-03-29T05:42:12.584Z,98.98
2019-03-29T05:44:44.022Z,99.35
2019-03-29T05:47:15.671Z,99.27
2019-03-29T05:49:47.066Z,98.23
2019-03-29T05:52:18.422Z,97.14
2019-03-29T05:54:50.075Z,96.52
2019-03-29T05:57:21.323Z,96.06
2019-03-29T05:59:52.749Z,95.91
2019-03-29T06:02:24.054Z,95.95
2019-03-29T06:04:55.430Z,95.82
2019-03-29T06:07:26.573Z,95.17
2019-03-29T06:09:57.768Z,94.29
2019-03-29T06:12:29.147Z,93.88
2019-03-29T06:15:01.019Z,93.02
2019-03-29T06:17:32.194Z,92.62
2019-03-29T06:20:03.493Z,92.63
2019-03-29T06:22:34.839Z,92.34
2019-03-29T06:25:11.533Z,91.43
2019-03-29T06:27:42.944Z,91.80
2019-03-29T06:30:16.925Z,91.38
2019-03-29T06:32:48.180Z,91.10
2019-03-29T06:35:19.361Z,90.49
2019-03-29T06:37:50.941Z,91.05
2019-03-29T06:40:27.433Z,90.41
2019-03-29T06:42:58.609Z,88.98
2019-03-29T06:45:30.020Z,88.82
2019-03-29T06:48:01.299Z,87.99
2019-03-29T06:50:32.646Z,88.03
2019-03-29T06:53:04.045Z,87.87
2019-03-29T06:55:35.864Z,86.46
2019-03-29T06:58:07.162Z,85.04
2019-03-29T07:00:38.535Z,83.81
2019-03-29T07:03:09.994Z,82.79
2019-03-29T07:05:41.206Z,82.78
2019-03-29T07:08:12.539Z,82.66
2019-03-29T07:10:43.819Z,82.99
2019-03-29T07:13:15.167Z,82.38
2019-03-29T07:15:46.401Z,80.11
2019-03-29T07:18:18.070Z,78.26
2019-03-29T07:20:49.359Z,76.58
2019-03-29T07:23:20.614Z,75.09
2019-03-29T07:25:52.435Z,73.37
2019-03-29T07:28:23.623Z,73.09
2019-03-29T07:30:54.947Z,73.59
2019-03-29T07:33:26.263Z,71.54
2019-03-29T07:35:57.549Z,70.83
2019-03-29T07:38:28.731Z,70.13
2019-03-29T07:41:02.071Z,70.48
2019-03-29T07:43:33.306Z,67.47
2019-03-29T07:46:04.474Z,67.28
2019-03-29T07:48:35.709Z,67.50
2019-03-29T07:51:06.929Z,68.50
2019-03-29T07:53:38.123Z,70.52
2019-03-29T07:56:09.333Z,70.52
2019-03-29T07:58:40.711Z,70.70
2019-03-29T08:01:11.948Z,69.74
2019-03-29T08:03:43.473Z,67.75
2019-03-29T08:06:15.241Z,66.59
2019-03-29T08:08:46.479Z,68.66
2019-03-29T08:11:26.068Z,68.91
2019-03-29T08:13:50.632Z,68.37
2019-03-29T08:16:22.230Z,68.13
2019-03-29T08:18:53.527Z,69.51
2019-03-29T08:21:25.156Z,70.35
2019-03-29T08:23:56.484Z,70.61
2019-03-29T08:26:27.698Z,71.04
2019-03-29T08:28:58.862Z,72.21
2019-03-29T08:31:30.079Z,73.06
2019-03-29T08:34:01.284Z,74.37
2019-03-29T08:36:32.596Z,74.23
2019-03-29T08:39:05.068Z,75.30
2019-03-29T08:41:36.518Z,77.11
2019-03-29T08:44:07.791Z,77.50
2019-03-29T08:46:39.009Z,77.02
2019-03-29T08:49:10.400Z,76.55
2019-03-29T08:51:41.714Z,75.72
2019-03-29T08:54:13.134Z,74.74
2019-03-29T08:56:44.525Z,74.24
2019-03-29T08:59:17.500Z,70.29
2019-03-29T09:01:48.715Z,67.42
2019-03-29T09:04:21.745Z,66.33
2019-03-29T09:06:54.115Z,66.05
2019-03-29T09:09:25.826Z,67.56
2019-03-29T09:11:57.248Z,68.00
2019-03-29T09:14:31.263Z,69.03
2019-03-29T09:17:01.619Z,69.44
2019-03-29T09:19:32.828Z,68.84
2019-03-29T09:22:04.153Z,70.87
2019-03-29T09:24:35.534Z,72.38
2019-03-29T09:27:06.932Z,72.59
2019-03-29T09:29:38.305Z,73.50
2019-03-29T09:32:09.755Z,74.21
2019-03-29T09:34:41.003Z,73.83
2019-03-29T09:37:12.285Z,73.92
2019-03-29T09:39:44.174Z,74.68
2019-03-29T09:42:28.146Z,74.26
2019-03-29T09:44:48.485Z,74.70
2019-03-29T09:47:19.609Z,74.25
2019-03-29T09:49:50.839Z,73.66
2019-03-29T09:52:22.076Z,73.51
2019-03-29T09:54:54.188Z,71.67
2019-03-29T09:57:36.811Z,71.46
2019-03-29T09:59:58.470Z,69.95
2019-03-29T10:02:29.599Z,68.43
2019-03-29T10:05:02.896Z,68.47
2019-03-29T10:07:34.151Z,67.87
2019-03-29T10:10:06.551Z,66.13
2019-03-29T10:12:43.860Z,59.21
2019-03-29T10:15:11.482Z,54.46
2019-03-29T10:17:42.794Z,48.43
2019-03-29T10:20:14.195Z,47.23
2019-03-29T10:22:45.475Z,49.32
2019-03-29T10:25:19.779Z,51.92
2019-03-29T10:27:49.802Z,53.47
2019-03-29T10:30:41.534Z,56.67
2019-03-29T10:33:12.772Z,58.04
2019-03-29T10:35:52.158Z,61.23
2019-03-29T10:38:18.456Z,61.17
2019-03-29T10:40:50.745Z,61.67
2019-03-29T10:43:22.043Z,61.30
2019-03-29T10:45:53.210Z,60.71
2019-03-29T10:48:24.414Z,60.74
2019-03-29T10:50:55.917Z,60.57
2019-03-29T10:53:28.693Z,61.63
2019-03-29T10:56:00.448Z,59.27
2019-03-29T10:58:31.611Z,59.80
2019-03-29T11:01:03.080Z,59.32
2019-03-29T11:03:34.446Z,60.21
2019-03-29T11:06:05.736Z,61.18
2019-03-29T11:08:36.990Z,61.45
2019-03-29T11:11:08.176Z,61.27
2019-03-29T11:13:41.195Z,61.31
2019-03-29T11:16:12.331Z,60.90
2019-03-29T11:18:45.802Z,61.02
2019-03-29T11:21:16.777Z,58.61
2019-03-29T11:23:48.089Z,58.81
2019-03-29T11:26:19.930Z,59.23
2019-03-29T11:28:51.211Z,57.82
2019-03-29T11:31:25.349Z,56.50
2019-03-29T11:33:55.676Z,55.66
2019-03-29T11:36:27.088Z,53.39
2019-03-29T11:38:58.442Z,52.65
2019-03-29T11:41:31.594Z,51.87
2019-03-29T11:44:02.829Z,54.37
2019-03-29T11:46:34.014Z,54.48
2019-03-29T11:49:05.484Z,56.56
2019-03-29T11:51:36.758Z,56.80
2019-03-29T11:54:08.118Z,56.97
2019-03-29T11:56:39.389Z,57.53
2019-03-29T11:59:10.768Z,55.43
2019-03-29T12:01:45.547Z,57.47
2019-03-29T12:04:16.888Z,57.03
2019-03-29T12:06:48.305Z,56.02
2019-03-29T12:09:19.568Z,55.62
2019-03-29T12:11:50.828Z,56.88
2019-03-29T12:14:22.019Z,57.60
2019-03-29T12:16:53.359Z,55.69
2019-03-29T12:19:24.479Z,55.48
2019-03-29T12:21:55.672Z,56.53
2019-03-29T12:24:26.831Z,56.20
2019-03-29T12:26:57.925Z,56.57
2019-03-29T12:29:29.170Z,57.58
2019-03-29T12:32:00.474Z,55.90
2019-03-29T12:34:31.668Z,54.03
2019-03-29T12:37:03.029Z,56.90
2019-03-29T12:39:34.235Z,55.11
2019-03-29T12:42:06.128Z,55.29
2019-03-29T12:44:37.544Z,53.93
2019-03-29T12:47:08.786Z,54.50
2019-03-29T12:49:40.029Z,54.99
2019-03-29T12:52:11.554Z,56.37
2019-03-29T12:54:42.809Z,57.03
2019-03-29T12:57:14.004Z,56.81
2019-03-29T12:59:46.084Z,57.21
2019-03-29T13:02:19.647Z,56.96
2019-03-29T13:04:50.888Z,57.77
2019-03-29T13:07:22.257Z,57.17
2019-03-29T13:09:53.608Z,58.06
2019-03-29T13:12:24.904Z,57.84
2019-03-29T13:14:56.144Z,60.03
2019-03-29T13:17:28.638Z,59.54
2019-03-29T13:19:59.998Z,60.24
2019-03-29T13:22:34.598Z,61.38
2019-03-29T13:25:07.359Z,59.70
2019-03-29T13:27:37.596Z,59.50
2019-03-29T13:30:10.624Z,58.63
2019-03-29T13:32:41.943Z,59.40
2019-03-29T13:35:13.385Z,59.81
2019-03-29T13:37:44.626Z,59.62
2019-03-29T13:40:16.198Z,57.49
2019-03-29T13:42:47.543Z,57.04
2019-03-29T13:45:27.676Z,58.22
2019-03-29T13:47:56.144Z,59.28
2019-03-29T13:50:27.574Z,59.25
2019-03-29T13:52:58.863Z,57.98
2019-03-29T13:55:30.101Z,56.67
2019-03-29T13:58:01.421Z,58.30
2019-03-29T14:00:32.784Z,57.54
2019-03-29T14:03:04.056Z,57.01
2019-03-29T14:05:35.348Z,57.82
2019-03-29T14:08:06.635Z,57.01
2019-03-29T14:10:37.963Z,59.75
2019-03-29T14:13:09.378Z,57.92
2019-03-29T14:15:40.532Z,56.81
2019-03-29T14:18:11.844Z,56.92
2019-03-29T14:20:43.159Z,58.29
2019-03-29T14:23:14.459Z,59.16
2019-03-29T14:25:45.674Z,57.83
2019-03-29T14:28:16.988Z,57.35
2019-03-29T14:30:48.303Z,56.63
2019-03-29T14:33:19.697Z,56.79
2019-03-29T14:35:51.618Z,58.00
2019-03-29T14:38:23.159Z,57.62
2019-03-29T14:40:54.562Z,56.08
2019-03-29T14:43:25.919Z,56.37
2019-03-29T14:45:57.254Z,56.69
2019-03-29T14:48:28.559Z,56.89
2019-03-29T14:50:59.770Z,56.38
2019-03-29T14:53:31.020Z,57.15
2019-03-29T14:56:02.275Z,57.06
2019-03-29T14:58:33.573Z,56.41
2019-03-29T15:01:04.949Z,56.30
2019-03-29T15:03:36.227Z,54.91
2019-03-29T15:06:07.407Z,54.83
2019-03-29T15:08:38.779Z,54.83
2019-03-29T15:11:21.563Z,56.63
2019-03-29T15:13:43.034Z,55.65
2019-03-29T15:16:14.284Z,55.84
2019-03-29T15:18:45.734Z,57.49
2019-03-29T15:21:17.083Z,55.83
2019-03-29T15:23:48.208Z,57.50
2019-03-29T15:26:19.505Z,56.40
2019-03-29T15:28:50.769Z,55.84
2019-03-29T15:31:22.039Z,56.13
2019-03-29T15:33:55.615Z,56.27
2019-03-29T15:36:26.283Z,56.98
2019-03-29T15:38:57.864Z,57.75
2019-03-29T15:41:29.187Z,56.45
2019-03-29T15:44:00.493Z,56.75
2019-03-29T15:46:31.869Z,55.95
2019-03-29T15:49:03.013Z,55.53
2019-03-29T15:51:34.434Z,58.98
2019-03-29T15:54:05.687Z,57.86
2019-03-29T15:56:36.904Z,57.72
2019-03-29T15:59:08.094Z,59.87
2019-03-29T16:01:39.375Z,60.30
2019-03-29T16:04:10.569Z,59.81
2019-03-29T16:06:42.079Z,59.55
2019-03-29T16:09:13.409Z,60.51
2019-03-29T16:11:44.632Z,59.31
2019-03-29T16:14:15.984Z,60.56
2019-03-29T16:16:47.337Z,59.93
2019-03-29T16:19:18.669Z,59.85
2019-03-29T16:21:49.926Z,60.03
2019-03-29T16:24:21.127Z,60.50
2019-03-29T16:26:52.528Z,60.02
2019-03-29T16:29:23.775Z,60.26
2019-03-29T16:31:55.021Z,60.65
2019-03-29T16:34:26.248Z,61.51
2019-03-29T16:36:57.456Z,60.63
2019-03-29T16:39:28.740Z,60.99
2019-03-29T16:42:00.028Z,61.91
2019-03-29T16:44:31.344Z,62.71
2019-03-29T16:47:02.585Z,61.98
2019-03-29T16:49:33.939Z,62.97
2019-03-29T16:52:05.245Z,63.22
2019-03-29T16:54:36.574Z,63.45
2019-03-29T16:57:07.749Z,63.85
2019-03-29T16:59:38.963Z,64.88
2019-03-29T17:02:10.346Z,65.27
2019-03-29T17:04:41.491Z,66.46
2019-03-29T17:07:12.634Z,67.66
2019-03-29T17:09:43.952Z,69.52
2019-03-29T17:12:15.258Z,70.58
2019-03-29T17:14:46.579Z,72.27
2019-03-29T17:17:19.945Z,72.99
2019-03-29T17:19:51.309Z,73.68
2019-03-29T17:22:23.765Z,74.84
2019-03-29T17:24:57.192Z,75.60
2019-03-29T17:27:28.108Z,75.98
2019-03-29T17:29:59.310Z,76.56
2019-03-29T17:32:30.718Z,76.76
2019-03-29T17:35:01.841Z,76.67
2019-03-29T17:37:33.124Z,76.86
2019-03-29T17:40:05.109Z,77.48
2019-03-29T17:42:36.393Z,77.74
2019-03-29T17:45:08.292Z,78.43
2019-03-29T17:47:39.527Z,78.94
2019-03-29T17:50:10.997Z,79.01
2019-03-29T17:52:42.574Z,79.71
2019-03-29T17:55:17.294Z,80.17
2019-03-29T17:57:48.801Z,80.95
2019-03-29T18:00:22.938Z,81.80
2019-03-29T18:02:54.155Z,82.01
2019-03-29T18:05:25.396Z,82.57
2019-03-29T18:07:58.334Z,82.98
2019-03-29T18:10:29.524Z,83.21
2019-03-29T18:13:02.310Z,82.91
2019-03-29T18:15:33.624Z,82.62
2019-03-29T18:18:06.004Z,82.51
2019-03-29T18:20:37.467Z,82.75
2019-03-29T18:23:09.924Z,82.85
2019-03-29T18:25:42.709Z,83.73
2019-03-29T18:28:18.718Z,84.06
2019-03-29T18:30:50.265Z,84.33
2019-03-29T18:33:24.358Z,84.60
2019-03-29T18:35:56.180Z,84.79
2019-03-29T18:38:29.878Z,84.18
2019-03-29T18:41:01.153Z,84.55
2019-03-29T18:43:32.484Z,85.61
2019-03-29T18:46:04.420Z,86.89
2019-03-29T18:48:35.829Z,87.67
2019-03-29T18:51:09.644Z,87.93
2019-03-29T18:53:41.094Z,87.41
2019-03-29T18:56:16.808Z,87.96
2019-03-29T18:58:49.083Z,88.23
2019-03-29T19:01:20.378Z,88.15
2019-03-29T19:03:52.039Z,88.06
2019-03-29T19:06:25.306Z,87.49
2019-03-29T19:08:59.888Z,86.92
2019-03-29T19:11:34.535Z,86.67
2019-03-29T19:14:08.329Z,86.74
2019-03-29T19:16:42.731Z,86.98
2019-03-29T19:19:14.269Z,87.06
2019-03-29T19:21:54.451Z,87.06
2019-03-29T19:24:27.897Z,87.43
2019-03-29T19:27:02.872Z,87.67
2019-03-29T19:29:34.984Z,87.64
2019-03-29T19:32:15.069Z,88.39
2019-03-29T19:34:48.506Z,88.76
2019-03-29T19:37:19.919Z,88.68
2019-03-29T19:39:52.463Z,88.28
2019-03-29T19:42:23.720Z,87.95
2019-03-29T19:44:58.579Z,88.99
2019-03-29T19:47:35.610Z,88.68
2019-03-29T19:50:07.416Z,89.13
2019-03-29T19:52:42.290Z,89.65
2019-03-29T19:55:16.122Z,90.15
2019-03-29T19:57:53.940Z,90.69
2019-03-29T20:00:53.006Z,90.93
2019-03-29T20:03:24.330Z,91.17
2019-03-29T20:06:02.105Z,91.81
2019-03-29T20:08:40.579Z,92.28
2019-03-29T20:11:12.354Z,91.75
2019-03-29T20:13:47.088Z,92.07
2019-03-29T20:16:18.725Z,92.39
2019-03-29T20:18:57.382Z,92.37
2019-03-29T20:21:34.055Z,92.28
2019-03-29T20:24:05.487Z,92.12
2019-03-29T20:26:38.140Z,93.40
2019-03-29T20:29:12.207Z,94.56
2019-03-29T20:31:44.758Z,95.32
2019-03-29T20:34:17.678Z,95.84
2019-03-29T20:36:50.611Z,95.79
2019-03-29T20:39:22.939Z,95.84
2019-03-29T20:41:55.458Z,96.00
2019-03-29T20:44:33.925Z,95.46
2019-03-29T20:47:08.685Z,95.04
2019-03-29T20:49:41.444Z,95.98
2019-03-29T20:52:16.421Z,96.64
2019-03-29T20:54:48.927Z,96.85
2019-03-29T20:57:21.635Z,96.96
2019-03-29T20:59:55.043Z,96.89
2019-03-29T21:02:26.564Z,96.76
2019-03-29T21:04:57.866Z,95.91
2019-03-29T21:07:29.193Z,95.21
2019-03-29T21:10:06.876Z,94.60
2019-03-29T21:12:38.338Z,94.14
2019-03-29T21:15:11.569Z,93.89
2019-03-29T21:17:56.036Z,94.76
2019-03-29T21:20:15.998Z,95.31
2019-03-29T21:22:47.398Z,95.52
2019-03-29T21:25:18.695Z,95.90
2019-03-29T21:27:49.998Z,96.45
2019-03-29T21:30:21.819Z,96.88
2019-03-29T21:32:54.063Z,96.80
2019-03-29T21:35:25.330Z,97.05
2019-03-29T21:37:56.725Z,96.89
2019-03-29T21:40:28.134Z,96.14
2019-03-29T21:43:01.820Z,95.86
2019-03-29T21:45:32.316Z,95.45
2019-03-29T21:48:26.931Z,95.24
2019-03-29T21:50:36.460Z,95.92
2019-03-29T21:53:08.134Z,95.93
2019-03-29T21:55:39.238Z,95.87
2019-03-29T21:58:10.539Z,96.05
2019-03-29T22:00:41.668Z,96.28
2019-03-29T22:03:13.097Z,96.14
2019-03-29T22:05:44.763Z,96.17
2019-03-29T22:08:17.960Z,96.57
2019-03-29T22:10:49.209Z,96.77
2019-03-29T22:13:20.441Z,96.60
2019-03-29T22:15:51.643Z,96.79
2019-03-29T22:18:22.780Z,96.95
2019-03-29T22:20:53.862Z,97.38
2019-03-29T22:23:25.044Z,97.58
2019-03-29T22:25:57.875Z,97.55
2019-03-29T22:28:29.334Z,97.22
2019-03-29T22:31:00.713Z,97.00
2019-03-29T22:33:31.978Z,96.81
2019-03-29T22:36:03.219Z,96.51
2019-03-29T22:38:34.395Z,96.37
2019-03-29T22:41:05.636Z,96.34
2019-03-29T22:43:36.745Z,96.47
2019-03-29T22:46:08.091Z,96.66
2019-03-29T22:48:51.699Z,97.50
2019-03-29T22:51:12.640Z,98.22
2019-03-29T22:53:43.911Z,98.32
2019-03-29T22:56:15.246Z,98.40
2019-03-29T22:58:46.714Z,97.97
2019-03-29T23:01:18.468Z,97.71
2019-03-29T23:03:49.800Z,97.64
2019-03-29T23:06:21.043Z,97.51
2019-03-29T23:08:52.145Z,97.31
2019-03-29T23:11:23.352Z,97.20
2019-03-29T23:13:54.617Z,97.59
2019-03-29T23:16:25.762Z,98.15
2019-03-29T23:19:06.353Z,98.38
2019-03-29T23:21:29.800Z,98.51
2019-03-29T23:24:00.940Z,98.74
2019-03-29T23:26:32.036Z,98.88
2019-03-29T23:29:03.243Z,98.97
2019-03-29T23:31:34.346Z,98.98
2019-03-29T23:34:05.677Z,98.96
2019-03-29T23:36:36.852Z,99.45
2019-03-29T23:39:09.036Z,99.82
2019-03-29T23:41:40.141Z,100.00
2019-03-29T23:44:11.346Z,100.00
2019-03-29T23:46:42.613Z,99.78
2019-03-29T23:49:21.069Z,99.30
2019-03-29T23:51:47.106Z,99.31
2019-03-29T23:54:18.311Z,99.28
2019-03-29T23:56:49.551Z,99.25
2019-03-29T23:59:20.652Z,99.43
